createdAt,value
2023-06-27T00:00:29.247Z,15.27
2023-06-27T00:02:57.896Z,13.23
2023-06-27T00:05:26.339Z,14.02
2023-06-27T00:07:54.918Z,13.00
2023-06-27T00:10:24.693Z,12.88
2023-06-27T00:12:54.052Z,14.80
2023-06-27T00:15:24.599Z,14.85
2023-06-27T00:17:55.030Z,19.45
2023-06-27T00:20:24.861Z,18.73
2023-06-27T00:22:54.498Z,14.60
2023-06-27T00:25:26.395Z,14.32
2023-06-27T00:27:55.212Z,14.63
2023-06-27T00:30:24.693Z,16.40
2023-06-27T00:32:55.054Z,14.15
2023-06-27T00:37:53.025Z,15.00
2023-06-27T00:40:21.614Z,15.18
2023-06-27T00:42:53.381Z,16.63
2023-06-27T00:47:57.946Z,15.05
2023-06-27T00:50:28.455Z,19.33
2023-06-27T00:52:58.928Z,13.82
2023-06-27T00:55:27.287Z,13.98
2023-06-27T00:57:57.378Z,16.38
2023-06-27T01:00:25.597Z,15.30
2023-06-27T01:02:54.469Z,14.43
2023-06-27T01:05:22.999Z,14.50
2023-06-27T01:07:58.155Z,14.65
2023-06-27T01:10:33.433Z,14.77
2023-06-27T01:13:09.418Z,15.38
2023-06-27T01:15:38.836Z,17.88
2023-06-27T01:18:12.778Z,17.77
2023-06-27T01:20:45.160Z,17.75
2023-06-27T01:23:18.942Z,15.38
2023-06-27T01:25:48.755Z,17.52
2023-06-27T01:28:17.209Z,20.05
2023-06-27T01:30:48.256Z,16.13
2023-06-27T01:33:22.543Z,16.00
2023-06-27T01:36:01.011Z,16.98
2023-06-27T01:38:35.301Z,15.93
2023-06-27T01:41:08.700Z,14.43
2023-06-27T01:43:38.439Z,19.63
2023-06-27T01:46:07.326Z,13.52
2023-06-27T01:48:37.175Z,17.33
2023-06-27T01:51:09.876Z,15.27
2023-06-27T01:53:38.920Z,15.57
2023-06-27T01:56:10.695Z,15.15
2023-06-27T02:01:10.086Z,15.52
2023-06-27T02:03:38.484Z,17.48
2023-06-27T02:06:07.511Z,17.00
2023-06-27T02:08:35.988Z,17.25
2023-06-27T02:11:09.290Z,17.85
2023-06-27T02:13:39.106Z,19.00
2023-06-27T02:16:08.595Z,17.55
2023-06-27T02:18:38.339Z,20.60
2023-06-27T02:21:08.259Z,23.23
2023-06-27T02:23:38.730Z,20.83
2023-06-27T02:26:09.954Z,19.42
2023-06-27T02:28:39.619Z,21.10
2023-06-27T02:31:08.923Z,24.90
2023-06-27T02:33:37.682Z,20.23
2023-06-27T02:36:06.927Z,21.02
2023-06-27T02:38:36.284Z,23.40
2023-06-27T02:41:04.901Z,22.05
2023-06-27T02:43:36.058Z,19.95
2023-06-27T02:46:08.306Z,20.38
2023-06-27T02:48:37.230Z,21.48
2023-06-27T02:51:05.976Z,22.33
2023-06-27T02:53:34.586Z,18.90
2023-06-27T02:56:06.457Z,19.70
2023-06-27T02:58:40.259Z,16.75
2023-06-27T03:01:10.102Z,17.10
2023-06-27T03:03:38.672Z,17.48
2023-06-27T03:06:10.372Z,18.05
2023-06-27T03:08:39.579Z,19.30
2023-06-27T03:11:08.114Z,20.08
2023-06-27T03:13:38.941Z,17.35
2023-06-27T03:16:07.834Z,23.20
2023-06-27T03:18:36.139Z,25.42
2023-06-27T03:21:05.288Z,23.45
2023-06-27T03:23:33.892Z,22.55
2023-06-27T03:26:02.376Z,23.45
2023-06-27T03:28:32.773Z,19.38
2023-06-27T03:31:03.672Z,25.27
2023-06-27T03:33:34.054Z,20.77
2023-06-27T03:36:04.116Z,19.83
2023-06-27T03:38:35.445Z,17.90
2023-06-27T03:41:04.194Z,20.38
2023-06-27T03:43:34.061Z,18.92
2023-06-27T03:46:05.995Z,20.58
2023-06-27T03:51:05.634Z,19.95
2023-06-27T03:53:36.484Z,20.45
2023-06-27T03:56:09.502Z,22.70
2023-06-27T03:58:39.862Z,16.77
2023-06-27T04:01:13.111Z,18.95
2023-06-27T04:03:44.775Z,19.63
2023-06-27T04:06:14.850Z,18.15
2023-06-27T04:08:47.517Z,16.55
2023-06-27T04:11:16.370Z,18.77
2023-06-27T04:13:46.435Z,17.00
2023-06-27T04:16:16.833Z,21.08
2023-06-27T04:18:45.589Z,23.95
2023-06-27T04:21:15.228Z,18.55
2023-06-27T04:23:45.902Z,17.88
2023-06-27T04:26:16.490Z,19.10
2023-06-27T04:28:48.445Z,19.90
2023-06-27T04:31:22.997Z,19.15
2023-06-27T04:33:56.711Z,20.13
2023-06-27T04:36:26.789Z,19.48
2023-06-27T04:38:55.403Z,18.83
2023-06-27T04:41:30.912Z,23.25
2023-06-27T04:44:00.828Z,22.45
2023-06-27T04:46:34.284Z,20.67
2023-06-27T04:49:03.534Z,20.25
2023-06-27T04:51:32.251Z,21.10
2023-06-27T04:54:05.036Z,20.48
2023-06-27T04:56:35.663Z,19.27
2023-06-27T04:59:05.155Z,21.52
2023-06-27T05:01:36.290Z,25.55
2023-06-27T05:04:08.289Z,20.88
2023-06-27T05:06:38.898Z,24.90
2023-06-27T05:09:07.653Z,21.95
2023-06-27T05:11:38.426Z,23.73
2023-06-27T05:14:06.884Z,23.88
2023-06-27T05:16:40.626Z,21.65
2023-06-27T05:19:09.465Z,26.80
2023-06-27T05:21:40.423Z,46.92
2023-06-27T05:24:10.051Z,23.95
2023-06-27T05:26:38.926Z,28.20
2023-06-27T05:29:07.102Z,37.80
2023-06-27T05:31:36.950Z,25.35
2023-06-27T05:34:06.039Z,26.63
2023-06-27T05:36:37.179Z,23.90
2023-06-27T05:39:07.071Z,25.23
2023-06-27T05:41:35.587Z,24.98
2023-06-27T05:44:05.618Z,24.27
2023-06-27T05:46:38.966Z,22.10
2023-06-27T05:49:10.593Z,19.27
2023-06-27T05:51:40.526Z,20.02
2023-06-27T05:54:10.615Z,20.67
2023-06-27T05:56:40.627Z,25.48
2023-06-27T05:59:08.951Z,19.20
2023-06-27T06:01:41.957Z,21.52
2023-06-27T06:04:15.021Z,19.55
2023-06-27T06:06:43.362Z,21.25
2023-06-27T06:09:13.411Z,20.35
2023-06-27T06:11:43.478Z,20.88
2023-06-27T06:14:14.038Z,23.85
2023-06-27T06:16:44.380Z,26.10
2023-06-27T06:19:14.652Z,20.30
2023-06-27T06:21:46.487Z,18.80
2023-06-27T06:24:15.336Z,19.50
2023-06-27T06:26:45.738Z,16.17
2023-06-27T06:29:15.209Z,18.05
2023-06-27T06:31:45.738Z,15.48
2023-06-27T06:34:17.448Z,14.30
2023-06-27T06:36:46.653Z,15.32
2023-06-27T06:39:16.502Z,14.20
2023-06-27T06:41:45.555Z,13.80
2023-06-27T06:44:14.035Z,14.70
2023-06-27T06:46:43.069Z,12.15
2023-06-27T06:49:15.816Z,16.90
2023-06-27T06:51:49.749Z,17.70
2023-06-27T06:54:18.332Z,16.08
2023-06-27T06:56:49.550Z,13.20
2023-06-27T06:59:20.371Z,14.25
2023-06-27T07:01:48.680Z,13.17
2023-06-27T07:04:18.599Z,18.15
2023-06-27T07:06:48.692Z,15.73
2023-06-27T07:09:17.417Z,15.98
2023-06-27T07:11:46.139Z,16.20
2023-06-27T07:14:14.789Z,13.48
2023-06-27T07:16:43.679Z,15.30
2023-06-27T07:19:13.048Z,15.15
2023-06-27T07:21:44.226Z,17.13
2023-06-27T07:24:13.816Z,15.48
2023-06-27T07:26:43.133Z,14.63
2023-06-27T07:29:12.297Z,13.35
2023-06-27T07:31:40.836Z,15.32
2023-06-27T07:34:10.139Z,15.95
2023-06-27T07:36:40.249Z,15.25
2023-06-27T07:39:12.853Z,15.98
2023-06-27T07:41:41.962Z,16.73
2023-06-27T07:44:12.310Z,14.88
2023-06-27T07:46:43.894Z,15.23
2023-06-27T07:49:13.468Z,15.32
2023-06-27T07:51:43.422Z,18.13
2023-06-27T07:54:15.696Z,16.80
2023-06-27T07:56:45.268Z,14.98
2023-06-27T07:59:14.403Z,18.00
2023-06-27T08:01:45.801Z,16.67
2023-06-27T08:04:17.009Z,15.25
2023-06-27T08:06:46.143Z,16.80
2023-06-27T08:09:16.236Z,14.32
2023-06-27T08:11:45.404Z,15.93
2023-06-27T08:14:17.172Z,15.25
2023-06-27T08:16:46.414Z,13.57
2023-06-27T08:19:20.349Z,14.70
2023-06-27T08:21:48.994Z,14.23
2023-06-27T08:24:19.325Z,14.60
2023-06-27T08:26:50.786Z,14.02
2023-06-27T08:31:51.028Z,18.35
2023-06-27T08:34:21.379Z,14.98
2023-06-27T08:36:50.887Z,13.48
2023-06-27T08:39:21.915Z,13.00
2023-06-27T08:41:52.650Z,15.10
2023-06-27T08:44:27.838Z,18.13
2023-06-27T08:47:06.669Z,15.40
2023-06-27T08:49:37.207Z,19.52
2023-06-27T08:52:09.605Z,18.30
2023-06-27T08:54:42.562Z,16.50
2023-06-27T08:57:15.670Z,17.35
2023-06-27T08:59:48.681Z,13.65
2023-06-27T09:02:18.679Z,15.77
2023-06-27T09:04:47.805Z,14.88
2023-06-27T09:07:16.578Z,16.65
2023-06-27T09:09:48.533Z,15.98
2023-06-27T09:12:18.365Z,16.00
2023-06-27T09:14:50.534Z,16.48
2023-06-27T09:17:20.811Z,17.38
2023-06-27T09:19:56.005Z,17.33
2023-06-27T09:22:26.130Z,16.02
2023-06-27T09:25:21.568Z,15.15
2023-06-27T09:27:52.561Z,17.10
2023-06-27T09:30:24.263Z,16.52
2023-06-27T09:32:58.037Z,16.52
2023-06-27T09:35:58.664Z,15.32
2023-06-27T09:40:52.087Z,16.23
2023-06-27T09:43:24.894Z,14.13
2023-06-27T09:46:00.054Z,17.27
2023-06-27T09:48:30.616Z,20.45
2023-06-27T09:51:09.387Z,18.58
2023-06-27T09:53:39.603Z,17.40
2023-06-27T09:56:11.140Z,17.00
2023-06-27T10:01:09.657Z,13.98
2023-06-27T10:03:39.516Z,16.02
2023-06-27T10:08:58.272Z,17.38
2023-06-27T10:11:29.291Z,17.05
2023-06-27T10:13:58.021Z,14.88
2023-06-27T10:16:28.035Z,17.20
2023-06-27T10:18:57.332Z,18.30
2023-06-27T10:21:31.610Z,14.57
2023-06-27T10:24:03.447Z,16.00
2023-06-27T10:26:33.952Z,13.40
2023-06-27T10:29:14.764Z,17.73
2023-06-27T10:31:47.545Z,12.95
2023-06-27T10:34:21.675Z,18.80
2023-06-27T10:37:00.333Z,14.43
2023-06-27T10:39:31.791Z,18.20
2023-06-27T10:42:09.308Z,15.98
2023-06-27T10:45:03.649Z,14.27
2023-06-27T10:47:36.683Z,10.48
2023-06-27T10:50:20.113Z,12.75
2023-06-27T10:53:03.053Z,13.02
2023-06-27T10:55:39.424Z,12.23
2023-06-27T10:58:11.682Z,12.73
2023-06-27T11:00:44.432Z,12.32
2023-06-27T11:03:24.872Z,11.95
2023-06-27T11:06:00.702Z,12.10
2023-06-27T11:08:34.183Z,11.23
2023-06-27T11:11:11.922Z,14.73
2023-06-27T11:13:44.333Z,11.77
2023-06-27T11:16:15.351Z,13.05
2023-06-27T11:18:45.555Z,11.07
2023-06-27T11:21:16.573Z,9.43
2023-06-27T11:23:45.506Z,13.63
2023-06-27T11:26:15.527Z,10.07
2023-06-27T11:28:46.493Z,15.65
2023-06-27T11:31:16.001Z,11.25
2023-06-27T11:33:46.043Z,13.23
2023-06-27T11:36:17.053Z,10.27
2023-06-27T11:38:47.966Z,9.35
2023-06-27T11:41:21.209Z,10.10
2023-06-27T11:43:49.496Z,9.23
2023-06-27T11:46:20.897Z,11.23
2023-06-27T11:48:51.639Z,10.15
2023-06-27T11:51:20.156Z,11.77
2023-06-27T11:53:51.704Z,13.82
2023-06-27T12:01:27.350Z,14.05
2023-06-27T12:03:57.370Z,9.75
2023-06-27T12:06:27.216Z,12.00
2023-06-27T12:08:56.269Z,11.10
2023-06-27T12:11:29.264Z,10.88
2023-06-27T12:13:57.733Z,14.98
2023-06-27T12:16:31.258Z,12.45
2023-06-27T12:19:09.742Z,12.65
2023-06-27T12:21:42.508Z,13.50
2023-06-27T12:24:12.933Z,11.52
2023-06-27T12:26:42.221Z,11.45
2023-06-27T12:29:14.258Z,11.23
2023-06-27T12:31:42.981Z,13.07
2023-06-27T12:34:14.577Z,13.18
2023-06-27T12:39:12.081Z,13.02
2023-06-27T12:41:42.909Z,13.43
2023-06-27T12:44:12.218Z,11.88
2023-06-27T12:46:42.843Z,14.50
2023-06-27T12:49:13.550Z,12.65
2023-06-27T12:51:42.352Z,13.10
2023-06-27T12:54:12.410Z,12.98
2023-06-27T12:56:42.139Z,12.98
2023-06-27T12:59:11.698Z,17.25
2023-06-27T13:01:56.605Z,18.77
2023-06-27T13:04:29.376Z,13.23
2023-06-27T13:06:59.562Z,14.68
2023-06-27T13:09:28.197Z,11.95
2023-06-27T13:11:57.005Z,14.38
2023-06-27T13:14:25.658Z,15.93
2023-06-27T13:16:55.317Z,14.45
2023-06-27T13:19:23.780Z,13.35
2023-06-27T13:21:54.004Z,15.40
2023-06-27T13:24:22.490Z,13.80
2023-06-27T13:26:51.245Z,13.10
2023-06-27T13:29:19.721Z,14.50
2023-06-27T13:31:49.384Z,13.05
2023-06-27T13:34:18.302Z,15.15
2023-06-27T13:36:47.644Z,12.32
2023-06-27T13:39:18.108Z,14.60
2023-06-27T13:41:46.753Z,14.73
2023-06-27T13:44:15.483Z,14.20
2023-06-27T13:46:44.677Z,16.48
2023-06-27T13:49:13.254Z,13.82
2023-06-27T13:51:41.791Z,12.90
2023-06-27T13:54:10.189Z,14.48
2023-06-27T13:56:43.021Z,14.00
2023-06-27T13:59:12.036Z,15.88
2023-06-27T14:01:42.024Z,12.32
2023-06-27T14:04:12.310Z,12.13
2023-06-27T14:06:41.124Z,12.82
2023-06-27T14:09:10.218Z,11.77
2023-06-27T14:11:40.038Z,14.18
2023-06-27T14:14:13.419Z,13.88
2023-06-27T14:16:42.188Z,13.15
2023-06-27T14:19:10.920Z,14.07
2023-06-27T14:21:39.913Z,11.63
2023-06-27T14:24:10.782Z,13.50
2023-06-27T14:26:42.870Z,12.73
2023-06-27T14:29:11.626Z,10.90
2023-06-27T14:31:41.425Z,13.52
2023-06-27T14:34:11.006Z,12.02
2023-06-27T14:36:42.791Z,12.82
2023-06-27T14:39:14.685Z,12.10
2023-06-27T14:41:50.795Z,12.15
2023-06-27T14:44:21.696Z,13.32
2023-06-27T14:46:50.567Z,15.68
2023-06-27T14:49:18.883Z,11.88
2023-06-27T14:51:53.546Z,13.32
2023-06-27T14:54:25.458Z,12.43
2023-06-27T14:56:56.554Z,19.50
2023-06-27T14:59:29.482Z,11.32
2023-06-27T15:01:58.666Z,13.20
2023-06-27T15:04:28.689Z,11.40
2023-06-27T15:06:59.847Z,10.52
2023-06-27T15:09:31.519Z,16.70
2023-06-27T15:14:33.115Z,14.30
2023-06-27T15:17:03.468Z,10.93
2023-06-27T15:19:32.913Z,13.23
2023-06-27T15:22:04.876Z,14.45
2023-06-27T15:24:35.901Z,13.80
2023-06-27T15:27:06.528Z,12.18
2023-06-27T15:29:35.268Z,10.73
2023-06-27T15:32:03.844Z,15.13
2023-06-27T15:34:33.865Z,11.35
2023-06-27T15:37:03.052Z,14.23
2023-06-27T15:39:32.053Z,14.63
2023-06-27T15:42:01.137Z,12.50
2023-06-27T15:44:32.474Z,12.45
2023-06-27T15:47:01.977Z,14.48
2023-06-27T15:49:30.770Z,11.93
2023-06-27T15:52:01.576Z,12.77
2023-06-27T15:54:30.702Z,14.55
2023-06-27T15:57:03.392Z,12.55
2023-06-27T15:59:34.637Z,14.30
2023-06-27T16:02:03.765Z,10.57
2023-06-27T16:04:34.607Z,9.63
2023-06-27T16:07:03.230Z,11.00
2023-06-27T16:09:33.772Z,10.70
2023-06-27T16:12:07.935Z,11.45
2023-06-27T16:14:40.880Z,16.88
2023-06-27T16:17:10.452Z,12.68
2023-06-27T16:19:40.149Z,13.95
2023-06-27T16:22:08.787Z,11.35
2023-06-27T16:24:37.711Z,12.18
2023-06-27T16:27:07.234Z,12.68
2023-06-27T16:29:37.895Z,11.98
2023-06-27T16:32:13.159Z,12.55
2023-06-27T16:34:42.617Z,11.63
2023-06-27T16:37:11.240Z,12.60
2023-06-27T16:39:39.881Z,14.85
2023-06-27T16:42:10.654Z,11.32
2023-06-27T16:44:44.215Z,9.98
2023-06-27T16:47:15.715Z,10.93
2023-06-27T16:49:44.255Z,10.52
2023-06-27T16:52:13.014Z,12.07
2023-06-27T16:54:41.590Z,10.40
2023-06-27T16:57:11.214Z,12.77
2023-06-27T16:59:39.727Z,9.35
2023-06-27T17:02:09.226Z,9.88
2023-06-27T17:04:39.820Z,12.15
2023-06-27T17:07:08.456Z,9.52
2023-06-27T17:09:39.875Z,11.15
2023-06-27T17:12:09.143Z,10.32
2023-06-27T17:14:39.733Z,10.13
2023-06-27T17:17:08.365Z,11.20
2023-06-27T17:19:40.594Z,9.30
2023-06-27T17:22:11.853Z,8.70
2023-06-27T17:24:41.279Z,10.18
2023-06-27T17:27:09.892Z,8.93
2023-06-27T17:29:38.654Z,9.80
2023-06-27T17:32:08.086Z,12.10
2023-06-27T17:34:37.221Z,10.48
2023-06-27T17:37:07.422Z,9.23
2023-06-27T17:39:35.756Z,11.35
2023-06-27T17:42:04.486Z,11.77
2023-06-27T17:44:33.119Z,11.05
2023-06-27T17:47:01.731Z,10.27
2023-06-27T17:49:30.294Z,10.05
2023-06-27T17:51:59.251Z,10.70
2023-06-27T17:54:29.158Z,9.68
2023-06-27T17:56:58.735Z,12.50
2023-06-27T17:59:27.578Z,9.45
2023-06-27T18:01:59.767Z,8.18
2023-06-27T18:04:31.890Z,10.65
2023-06-27T18:07:00.807Z,10.52
2023-06-27T18:09:31.093Z,9.25
2023-06-27T18:11:59.810Z,9.70
2023-06-27T18:14:30.093Z,13.27
2023-06-27T18:16:59.356Z,10.02
2023-06-27T18:19:28.051Z,10.95
2023-06-27T18:21:57.240Z,12.23
2023-06-27T18:24:27.655Z,11.50
2023-06-27T18:26:59.183Z,11.00
2023-06-27T18:29:28.512Z,11.30
2023-06-27T18:31:57.319Z,9.18
2023-06-27T18:34:26.030Z,10.95
2023-06-27T18:36:55.157Z,13.73
2023-06-27T18:39:24.784Z,10.00
2023-06-27T18:41:53.583Z,11.50
2023-06-27T18:44:24.005Z,11.10
2023-06-27T18:46:52.625Z,9.73
2023-06-27T18:49:21.583Z,11.75
2023-06-27T18:51:50.602Z,12.23
2023-06-27T18:54:20.551Z,15.35
2023-06-27T18:56:50.281Z,9.60
2023-06-27T18:59:20.245Z,10.75
2023-06-27T19:01:51.103Z,10.38
2023-06-27T19:04:21.219Z,11.52
2023-06-27T19:06:51.550Z,11.55
2023-06-27T19:09:26.172Z,10.02
2023-06-27T19:11:55.081Z,9.85
2023-06-27T19:14:23.755Z,10.07
2023-06-27T19:16:55.279Z,11.45
2023-06-27T19:19:27.330Z,9.85
2023-06-27T19:22:01.928Z,8.88
2023-06-27T19:24:31.571Z,13.88
2023-06-27T19:27:01.197Z,11.02
2023-06-27T19:29:31.183Z,9.63
2023-06-27T19:32:02.179Z,11.35
2023-06-27T19:34:30.575Z,12.57
2023-06-27T19:36:59.289Z,9.65
2023-06-27T19:39:27.998Z,11.88
2023-06-27T19:41:56.703Z,9.85
2023-06-27T19:44:25.683Z,10.15
2023-06-27T19:46:54.050Z,12.30
2023-06-27T19:49:24.336Z,9.57
2023-06-27T19:51:52.613Z,9.20
2023-06-27T19:54:21.290Z,9.73
2023-06-27T19:56:49.607Z,11.55
2023-06-27T19:59:18.017Z,9.85
2023-06-27T20:01:47.056Z,12.05
2023-06-27T20:04:15.568Z,10.90
2023-06-27T20:06:46.234Z,8.98
2023-06-27T20:09:14.660Z,9.93
2023-06-27T20:11:42.866Z,8.85
2023-06-27T20:14:11.383Z,12.45
2023-06-27T20:16:41.987Z,9.43
2023-06-27T20:19:10.491Z,9.75
2023-06-27T20:21:40.195Z,11.50
2023-06-27T20:24:10.755Z,11.85
2023-06-27T20:26:39.182Z,9.43
2023-06-27T20:29:09.830Z,10.05
2023-06-27T20:31:39.070Z,11.88
2023-06-27T20:34:08.058Z,12.05
2023-06-27T20:36:37.594Z,10.63
2023-06-27T20:39:12.002Z,10.52
2023-06-27T20:41:43.920Z,11.15
2023-06-27T20:44:12.555Z,11.00
2023-06-27T20:46:41.042Z,10.93
2023-06-27T20:49:11.964Z,10.77
2023-06-27T20:51:41.010Z,10.93
2023-06-27T20:54:12.752Z,11.73
2023-06-27T20:56:41.639Z,9.90
2023-06-27T20:59:12.040Z,10.70
2023-06-27T21:01:41.304Z,9.18
2023-06-27T21:04:09.795Z,9.00
2023-06-27T21:06:38.898Z,10.70
2023-06-27T21:09:08.132Z,9.60
2023-06-27T21:11:39.581Z,9.00
2023-06-27T21:14:10.288Z,11.07
2023-06-27T21:16:39.306Z,9.00
2023-06-27T21:19:09.832Z,11.13
2023-06-27T21:21:38.365Z,9.95
2023-06-27T21:24:07.489Z,11.25
2023-06-27T21:26:37.570Z,12.65
2023-06-27T21:29:06.551Z,9.93
2023-06-27T21:31:35.233Z,9.98
2023-06-27T21:34:03.684Z,9.00
2023-06-27T21:36:34.549Z,8.38
2023-06-27T21:39:03.208Z,8.68
2023-06-27T21:41:31.830Z,8.63
2023-06-27T21:44:01.690Z,10.13
2023-06-27T21:46:32.692Z,9.55
2023-06-27T21:49:01.137Z,11.48
2023-06-27T21:51:30.278Z,11.05
2023-06-27T21:53:59.104Z,9.73
2023-06-27T21:56:28.988Z,12.18
2023-06-27T21:58:57.276Z,14.07
2023-06-27T22:01:30.834Z,10.07
2023-06-27T22:04:01.543Z,10.10
2023-06-27T22:06:42.163Z,9.45
2023-06-27T22:09:12.302Z,11.90
2023-06-27T22:11:41.308Z,8.27
2023-06-27T22:14:10.416Z,9.55
2023-06-27T22:16:42.828Z,9.52
2023-06-27T22:19:14.564Z,11.10
2023-06-27T22:24:11.415Z,8.98
2023-06-27T22:26:41.817Z,9.13
2023-06-27T22:29:10.808Z,9.13
2023-06-27T22:31:42.075Z,9.13
2023-06-27T22:34:10.362Z,8.80
2023-06-27T22:36:41.670Z,12.38
2023-06-27T22:39:09.929Z,10.30
2023-06-27T22:41:40.539Z,9.20
2023-06-27T22:44:11.692Z,8.52
2023-06-27T22:46:44.295Z,12.25
2023-06-27T22:49:12.892Z,12.68
2023-06-27T22:51:42.296Z,9.52
2023-06-27T22:54:11.022Z,8.05
2023-06-27T22:56:39.439Z,11.43
2023-06-27T22:59:07.833Z,9.82
2023-06-27T23:01:36.466Z,11.68
2023-06-27T23:04:06.338Z,9.77
2023-06-27T23:06:34.945Z,11.02
2023-06-27T23:09:03.666Z,9.80
2023-06-27T23:11:32.680Z,10.77
2023-06-27T23:14:04.542Z,9.50
2023-06-27T23:19:03.889Z,10.40
2023-06-27T23:21:35.689Z,10.48
2023-06-27T23:26:36.323Z,10.43
2023-06-27T23:29:06.506Z,8.63
2023-06-27T23:31:39.455Z,12.52
2023-06-27T23:34:12.366Z,16.08
2023-06-27T23:36:44.331Z,10.60
2023-06-27T23:39:13.686Z,11.60
2023-06-27T23:41:42.243Z,12.43
2023-06-27T23:44:10.914Z,11.63
2023-06-27T23:46:40.585Z,10.02
2023-06-27T23:49:09.518Z,10.27
2023-06-27T23:51:37.677Z,9.85
2023-06-27T23:54:07.548Z,10.65
2023-06-27T23:56:38.874Z,10.48
2023-06-27T23:59:10.978Z,10.52
